Time;durP1;ratioP1;P1;durP2;ratioP2;P2;SDS_P1;SDS_P2;PMS_P1;PMS_P2;Temp;Humidity;BMP_temperature;BMP_pressure;BME280_temperature;BME280_humidity;BME280_pressure;Samples;Min_cycle;Max_cycle;Signal;HPM_P1;HPM_P2
2024/02/11 00:00:33;;;;;;;10.65;4.72;;;4.40;99.90;;;;;;5088037;28;20032;-49
2024/02/11 00:02:58;;;;;;;7.88;4.20;;;4.40;99.90;;;;;;5105739;28;20032;-47
2024/02/11 00:05:26;;;;;;;12.68;5.25;;;4.40;99.90;;;;;;5105489;28;20293;-47
2024/02/11 00:07:51;;;;;;;10.85;5.20;;;4.40;99.90;;;;;;5105494;28;20028;-46
2024/02/11 00:10:17;;;;;;;11.20;5.20;;;4.40;99.90;;;;;;5106034;28;20050;-48
2024/02/11 00:12:43;;;;;;;14.30;5.97;;;4.40;99.90;;;;;;5105271;28;20087;-47
2024/02/11 00:15:09;;;;;;;12.68;5.97;;;4.30;99.90;;;;;;5105055;28;20024;-48
2024/02/11 00:17:35;;;;;;;11.63;7.05;;;4.30;99.90;;;;;;5104948;28;20044;-48
2024/02/11 00:20:02;;;;;;;9.75;5.63;;;4.30;99.90;;;;;;5105919;28;20320;-49
2024/02/11 00:22:28;;;;;;;14.38;6.43;;;4.30;99.90;;;;;;5105509;28;20032;-46
2024/02/11 00:24:54;;;;;;;10.15;4.68;;;4.30;99.90;;;;;;5105433;28;20020;-49
2024/02/11 00:27:21;;;;;;;10.50;5.35;;;4.30;99.90;;;;;;5105311;28;20311;-49
2024/02/11 00:29:47;;;;;;;24.70;12.70;;;4.30;99.90;;;;;;5105344;28;20059;-49
2024/02/11 00:32:12;;;;;;;11.82;5.22;;;4.30;99.90;;;;;;5105288;28;20032;-46
2024/02/11 00:34:38;;;;;;;10.35;5.80;;;4.20;99.90;;;;;;5105305;28;20023;-47
2024/02/11 00:37:06;;;;;;;11.73;5.25;;;4.20;99.90;;;;;;5105542;28;20060;-46
2024/02/11 00:39:35;;;;;;;11.38;5.93;;;4.20;99.90;;;;;;5105038;28;20024;-48
2024/02/11 00:42:00;;;;;;;14.70;7.65;;;4.20;99.90;;;;;;5105493;28;20024;-48
2024/02/11 00:44:26;;;;;;;14.38;6.65;;;4.20;99.90;;;;;;5105469;28;20309;-46
2024/02/11 00:46:52;;;;;;;13.93;6.78;;;4.10;99.90;;;;;;5105162;28;20020;-47
2024/02/11 00:49:18;;;;;;;9.43;5.72;;;4.10;99.90;;;;;;5106484;28;20020;-49
2024/02/11 00:51:43;;;;;;;14.02;5.07;;;4.10;99.90;;;;;;5108969;28;20201;-49
2024/02/11 00:54:09;;;;;;;9.77;4.97;;;4.00;99.90;;;;;;5108989;28;20028;-47
2024/02/11 00:56:35;;;;;;;10.43;5.68;;;4.00;99.90;;;;;;5107942;28;20024;-47
2024/02/11 00:59:00;;;;;;;12.38;5.90;;;3.90;99.90;;;;;;5108003;28;20113;-47
2024/02/11 01:01:26;;;;;;;9.98;5.32;;;3.80;99.90;;;;;;5109330;28;20028;-49
2024/02/11 01:03:56;;;;;;;9.02;4.60;;;3.80;99.90;;;;;;5108876;28;20087;-49
2024/02/11 01:06:22;;;;;;;10.02;5.07;;;3.90;99.90;;;;;;5108977;28;20228;-48
2024/02/11 01:08:51;;;;;;;9.55;4.82;;;3.80;99.90;;;;;;5108489;28;20286;-49
2024/02/11 01:11:18;;;;;;;9.73;4.85;;;3.80;99.90;;;;;;5108700;28;20024;-49
2024/02/11 01:13:44;;;;;;;11.25;4.80;;;3.90;99.90;;;;;;5108733;28;20099;-49
2024/02/11 01:16:10;;;;;;;8.48;4.25;;;3.80;99.90;;;;;;5108724;28;20110;-46
2024/02/11 01:18:36;;;;;;;9.90;5.07;;;3.90;99.90;;;;;;5108815;28;20220;-48
2024/02/11 01:21:05;;;;;;;10.38;5.47;;;3.80;99.90;;;;;;5108267;28;20050;-46
2024/02/11 01:23:31;;;;;;;10.45;5.40;;;3.80;99.90;;;;;;5108408;28;20051;-44
2024/02/11 01:25:56;;;;;;;10.93;5.53;;;3.80;99.90;;;;;;5108427;28;20055;-47
2024/02/11 01:28:22;;;;;;;11.82;5.32;;;3.70;99.90;;;;;;5108310;28;20193;-45
2024/02/11 01:30:49;;;;;;;11.27;5.95;;;3.80;99.90;;;;;;5108626;28;20038;-47
2024/02/11 01:33:15;;;;;;;11.32;5.40;;;3.70;99.90;;;;;;5107471;28;20212;-46
2024/02/11 01:35:41;;;;;;;14.35;5.55;;;3.70;99.90;;;;;;5108276;28;20081;-48
2024/02/11 01:38:10;;;;;;;10.13;4.88;;;3.70;99.90;;;;;;5108368;28;20055;-47
2024/02/11 01:40:36;;;;;;;10.18;4.80;;;3.70;99.90;;;;;;5107755;28;20031;-45
2024/02/11 01:43:09;;;;;;;9.38;5.07;;;3.70;99.90;;;;;;5108055;28;20035;-45
2024/02/11 01:45:35;;;;;;;10.65;5.32;;;3.70;99.90;;;;;;5108557;28;20277;-45
2024/02/11 01:48:04;;;;;;;10.95;5.07;;;3.60;99.90;;;;;;5107091;28;20081;-47
2024/02/11 01:50:32;;;;;;;10.45;5.28;;;3.60;99.90;;;;;;5107259;28;20051;-48
2024/02/11 01:52:58;;;;;;;12.57;5.75;;;3.60;99.90;;;;;;5106828;28;20091;-45
2024/02/11 01:55:23;;;;;;;11.00;5.20;;;3.60;99.90;;;;;;5108061;28;20085;-45
2024/02/11 01:57:49;;;;;;;11.50;5.38;;;3.60;99.90;;;;;;5107769;28;20317;-47
2024/02/11 02:00:15;;;;;;;10.50;5.65;;;3.60;99.90;;;;;;5106180;28;20081;-47
2024/02/11 02:02:42;;;;;;;11.07;4.50;;;3.60;99.90;;;;;;5106798;28;20023;-47
2024/02/11 02:05:08;;;;;;;10.82;4.90;;;3.40;99.90;;;;;;5107503;28;20047;-46
2024/02/11 02:07:34;;;;;;;10.63;5.40;;;3.30;99.90;;;;;;5107764;28;20182;-46
2024/02/11 02:10:00;;;;;;;10.57;4.68;;;3.40;99.90;;;;;;5106719;28;20039;-45
2024/02/11 02:12:26;;;;;;;10.70;5.05;;;3.50;99.90;;;;;;5107019;28;20094;-45
2024/02/11 02:14:52;;;;;;;9.40;4.70;;;3.50;99.90;;;;;;5106557;28;20032;-45
2024/02/11 02:17:17;;;;;;;7.68;4.60;;;3.50;99.90;;;;;;5107236;28;20051;-48
2024/02/11 02:19:43;;;;;;;8.57;4.63;;;3.50;99.90;;;;;;5107319;28;20058;-47
2024/02/11 02:22:09;;;;;;;9.70;4.80;;;3.50;99.90;;;;;;5107637;28;20051;-48
2024/02/11 02:24:34;;;;;;;7.95;4.43;;;3.60;99.90;;;;;;5106763;28;20027;-48
2024/02/11 02:27:00;;;;;;;8.23;4.82;;;3.60;99.90;;;;;;5107258;28;20031;-48
2024/02/11 02:29:26;;;;;;;10.57;6.60;;;3.60;99.90;;;;;;5107176;28;20151;-46
2024/02/11 02:31:51;;;;;;;12.27;5.60;;;3.70;99.90;;;;;;5107153;28;20085;-45
2024/02/11 02:34:17;;;;;;;13.00;5.72;;;3.70;99.90;;;;;;5107099;28;20028;-47
2024/02/11 02:36:43;;;;;;;13.23;6.15;;;3.70;99.90;;;;;;5106792;28;20024;-48
2024/02/11 02:39:13;;;;;;;12.73;6.00;;;3.60;99.90;;;;;;5107309;28;20043;-47
2024/02/11 02:41:39;;;;;;;;;;;3.60;99.90;;;;;;5107508;28;20032;-46
2024/02/11 02:44:05;;;;;;;10.38;5.65;;;3.50;99.90;;;;;;5106573;28;19908;-48
2024/02/11 02:46:31;;;;;;;10.35;5.88;;;3.60;99.90;;;;;;5088913;28;20035;-47
2024/02/11 02:48:56;;;;;;;13.52;6.22;;;3.50;99.90;;;;;;5106760;28;20032;-45
2024/02/11 02:51:22;;;;;;;9.88;5.80;;;3.50;99.90;;;;;;5106808;28;20024;-47
2024/02/11 02:53:49;;;;;;;14.20;6.57;;;3.50;99.90;;;;;;5107059;28;20047;-48
2024/02/11 02:56:17;;;;;;;8.98;4.50;;;3.50;99.90;;;;;;5106964;28;20038;-49
2024/02/11 02:58:43;;;;;;;9.50;4.43;;;3.30;99.90;;;;;;5105629;28;20104;-47
2024/02/11 03:01:09;;;;;;;9.52;5.40;;;3.20;99.90;;;;;;5105419;28;20032;-46
2024/02/11 03:03:34;;;;;;;15.45;5.75;;;3.30;99.90;;;;;;5106417;28;20108;-47
2024/02/11 03:06:01;;;;;;;11.57;5.65;;;3.30;99.90;;;;;;5106639;28;20032;-48
2024/02/11 03:08:26;;;;;;;12.85;6.43;;;3.30;99.90;;;;;;5105472;28;20178;-48
2024/02/11 03:10:52;;;;;;;16.27;6.80;;;3.30;99.90;;;;;;5106467;28;20030;-48
2024/02/11 03:13:18;;;;;;;10.70;5.53;;;3.40;99.90;;;;;;5105482;28;20246;-47
2024/02/11 03:15:43;;;;;;;9.80;5.18;;;3.40;99.90;;;;;;5106091;28;20193;-48
2024/02/11 03:18:09;;;;;;;10.23;4.80;;;3.40;99.90;;;;;;5106164;28;20059;-46
2024/02/11 03:20:35;;;;;;;8.73;4.88;;;3.40;99.90;;;;;;5106367;28;20062;-46
2024/02/11 03:23:01;;;;;;;8.75;4.85;;;3.30;99.90;;;;;;5106181;28;20290;-46
2024/02/11 03:25:26;;;;;;;7.95;4.28;;;3.30;99.90;;;;;;5106163;28;20020;-48
2024/02/11 03:27:54;;;;;;;8.38;4.45;;;3.20;99.90;;;;;;5106373;28;20023;-46
2024/02/11 03:30:21;;;;;;;10.63;5.18;;;3.20;99.90;;;;;;5106357;28;20081;-47
2024/02/11 03:32:50;;;;;;;9.60;4.45;;;3.20;99.90;;;;;;5106009;28;20028;-46
2024/02/11 03:35:18;;;;;;;11.23;5.30;;;3.20;99.90;;;;;;5106139;28;20027;-46
2024/02/11 03:37:43;;;;;;;13.43;6.45;;;3.30;99.90;;;;;;5105881;28;20027;-46
2024/02/11 03:40:12;;;;;;;13.95;6.80;;;3.30;99.90;;;;;;5106005;28;20028;-48
2024/02/11 03:42:37;;;;;;;13.25;6.35;;;3.30;99.90;;;;;;5106428;28;20019;-47
2024/02/11 03:45:08;;;;;;;16.58;7.82;;;3.20;99.90;;;;;;5105936;28;20103;-45
2024/02/11 03:47:34;;;;;;;16.00;8.35;;;3.20;99.90;;;;;;5104977;28;20016;-47
2024/02/11 03:50:00;;;;;;;16.23;9.07;;;3.30;99.90;;;;;;5105964;28;20042;-47
2024/02/11 03:52:25;;;;;;;17.73;9.23;;;3.30;99.90;;;;;;5104745;28;20035;-47
2024/02/11 03:54:51;;;;;;;20.73;9.13;;;3.40;99.90;;;;;;5105804;28;20039;-46
2024/02/11 03:57:16;;;;;;;18.55;9.40;;;3.40;99.90;;;;;;5105250;28;20139;-46
2024/02/11 03:59:45;;;;;;;16.65;9.23;;;3.50;99.90;;;;;;5105776;28;20059;-48
2024/02/11 04:02:11;;;;;;;18.83;10.15;;;3.60;99.90;;;;;;5106022;28;20170;-47
2024/02/11 04:04:39;;;;;;;22.13;10.55;;;3.70;99.90;;;;;;5105913;28;20095;-48
2024/02/11 04:07:10;;;;;;;20.27;10.57;;;3.70;99.90;;;;;;5104600;28;20110;-45
2024/02/11 04:09:39;;;;;;;18.15;9.38;;;3.80;99.90;;;;;;5105753;28;20166;-46
2024/02/11 04:12:07;;;;;;;19.25;10.43;;;3.70;99.90;;;;;;5105806;28;20070;-45
2024/02/11 04:14:33;;;;;;;16.30;9.18;;;3.90;99.90;;;;;;5105934;28;20047;-46
2024/02/11 04:16:59;;;;;;;11.82;6.07;;;3.90;99.90;;;;;;5105294;28;20142;-46
2024/02/11 04:19:25;;;;;;;13.35;7.10;;;3.90;99.90;;;;;;5105151;28;20043;-47
2024/02/11 04:21:51;;;;;;;9.82;6.05;;;3.90;99.90;;;;;;5105430;28;20028;-47
2024/02/11 04:24:17;;;;;;;11.25;6.93;;;3.90;99.90;;;;;;5107261;28;20027;-48
2024/02/11 04:26:43;;;;;;;14.02;6.75;;;4.00;99.90;;;;;;5108494;28;20030;-48
2024/02/11 04:29:12;;;;;;;14.73;6.97;;;4.00;99.90;;;;;;5109688;28;20051;-45
2024/02/11 04:31:41;;;;;;;18.70;9.45;;;4.10;99.90;;;;;;5109120;28;20023;-48
2024/02/11 04:34:08;;;;;;;19.43;8.83;;;4.10;99.90;;;;;;5109743;28;20036;-47
2024/02/11 04:36:36;;;;;;;13.85;6.88;;;4.20;99.90;;;;;;5109396;28;20035;-45
2024/02/11 04:39:07;;;;;;;14.32;5.35;;;4.10;99.90;;;;;;5109544;28;20043;-49
2024/02/11 04:41:36;;;;;;;17.50;5.47;;;4.00;99.90;;;;;;5109211;28;20044;-49
2024/02/11 04:44:03;;;;;;;25.08;7.03;;;4.00;99.90;;;;;;5109290;28;20028;-48
2024/02/11 04:46:29;;;;;;;26.45;7.28;;;4.00;99.90;;;;;;5109228;28;20286;-45
2024/02/11 04:48:56;;;;;;;27.83;7.13;;;3.90;99.90;;;;;;5109063;28;20095;-46
2024/02/11 04:51:22;;;;;;;28.30;6.68;;;3.90;99.90;;;;;;5108939;28;20031;-49
2024/02/11 04:53:48;;;;;;;34.33;7.45;;;3.90;99.90;;;;;;5107948;28;20128;-48
2024/02/11 04:56:17;;;;;;;40.97;9.07;;;4.10;99.90;;;;;;5109159;28;20033;-48
2024/02/11 04:58:44;;;;;;;28.50;7.28;;;4.20;99.90;;;;;;5107981;28;20047;-46
2024/02/11 05:01:09;;;;;;;29.55;7.88;;;4.30;99.90;;;;;;5108703;28;20031;-48
2024/02/11 05:03:35;;;;;;;29.00;8.35;;;4.40;99.90;;;;;;5108922;28;20019;-46
2024/02/11 05:06:01;;;;;;;24.40;7.72;;;4.40;99.90;;;;;;5109271;28;20282;-46
2024/02/11 05:08:27;;;;;;;26.00;9.23;;;4.40;99.90;;;;;;5108753;28;20031;-46
2024/02/11 05:10:53;;;;;;;27.17;8.32;;;4.40;99.90;;;;;;5107867;28;20043;-47
2024/02/11 05:13:19;;;;;;;22.02;7.80;;;4.50;99.90;;;;;;5108615;28;20028;-47
2024/02/11 05:15:48;;;;;;;27.85;8.32;;;4.60;99.90;;;;;;5108637;28;20024;-46
2024/02/11 05:18:18;;;;;;;26.88;8.15;;;4.50;99.90;;;;;;5108511;28;20281;-48
2024/02/11 05:20:44;;;;;;;25.17;7.57;;;4.50;99.90;;;;;;5108558;28;20047;-48
2024/02/11 05:23:10;;;;;;;21.00;8.30;;;4.60;99.90;;;;;;5107406;28;20296;-47
2024/02/11 05:25:40;;;;;;;22.10;8.15;;;4.60;99.90;;;;;;5107289;28;20032;-47
2024/02/11 05:28:09;;;;;;;25.35;8.75;;;4.60;99.90;;;;;;5107541;28;20032;-48
2024/02/11 05:30:37;;;;;;;23.10;7.70;;;4.60;99.90;;;;;;5108405;28;20294;-49
2024/02/11 05:33:03;;;;;;;24.88;8.13;;;4.70;99.90;;;;;;5108297;28;20095;-49
2024/02/11 05:35:30;;;;;;;25.67;8.18;;;4.70;99.90;;;;;;5106304;28;20246;-46
2024/02/11 05:37:58;;;;;;;25.95;8.20;;;4.80;99.90;;;;;;5108224;28;20032;-46
2024/02/11 05:40:28;;;;;;;25.92;9.57;;;4.60;99.90;;;;;;5107264;28;20024;-48
2024/02/11 05:42:54;;;;;;;24.15;8.35;;;4.60;99.90;;;;;;5106906;28;20028;-49
2024/02/11 05:45:23;;;;;;;18.40;7.68;;;4.80;99.90;;;;;;5108243;28;20307;-48
2024/02/11 05:47:52;;;;;;;23.55;7.55;;;4.80;99.90;;;;;;5108069;28;20028;-49
2024/02/11 05:50:19;;;;;;;21.50;8.65;;;4.90;99.90;;;;;;5108023;28;20103;-49
2024/02/11 05:52:45;;;;;;;20.98;8.23;;;5.00;99.90;;;;;;5107805;28;20051;-49
2024/02/11 05:55:11;;;;;;;25.77;8.30;;;5.00;99.90;;;;;;5107708;28;20266;-49
2024/02/11 05:57:39;;;;;;;20.50;7.60;;;5.00;99.90;;;;;;5107691;28;20091;-48
2024/02/11 06:00:11;;;;;;;20.20;7.43;;;4.90;99.90;;;;;;5106704;28;20320;-47
2024/02/11 06:02:38;;;;;;;19.15;8.15;;;5.00;99.90;;;;;;5107800;28;20032;-48
2024/02/11 06:05:06;;;;;;;20.27;7.85;;;5.00;99.90;;;;;;5107642;28;20050;-46
2024/02/11 06:07:33;;;;;;;21.13;7.78;;;4.80;99.90;;;;;;5107605;28;20020;-49
2024/02/11 06:09:58;;;;;;;19.27;7.90;;;4.80;99.90;;;;;;5108019;28;20024;-49
2024/02/11 06:12:26;;;;;;;18.10;7.50;;;4.80;99.90;;;;;;5106976;28;20125;-49
2024/02/11 06:14:51;;;;;;;17.33;7.32;;;4.70;99.90;;;;;;5107151;28;20027;-48
2024/02/11 06:17:17;;;;;;;17.38;7.32;;;4.70;99.90;;;;;;5107092;28;20089;-47
2024/02/11 06:19:43;;;;;;;20.88;8.15;;;4.70;99.90;;;;;;5107220;28;20036;-48
2024/02/11 06:22:09;;;;;;;18.27;7.93;;;4.60;99.90;;;;;;5107317;28;20020;-47
2024/02/11 06:24:35;;;;;;;19.20;8.45;;;4.70;99.90;;;;;;5107742;28;20332;-46
2024/02/11 06:27:01;;;;;;;18.17;7.88;;;4.70;99.90;;;;;;5107154;28;20270;-48
2024/02/11 06:29:27;;;;;;;18.55;7.97;;;4.60;99.90;;;;;;5107144;28;20095;-49
2024/02/11 06:31:53;;;;;;;22.08;8.25;;;4.40;99.90;;;;;;5107135;28;20047;-48
2024/02/11 06:34:22;;;;;;;20.95;8.48;;;4.50;99.90;;;;;;5107084;28;20182;-49
2024/02/11 06:36:48;;;;;;;20.07;8.20;;;4.60;99.90;;;;;;5106964;28;20058;-48
2024/02/11 06:39:14;;;;;;;18.42;8.20;;;4.60;99.90;;;;;;5106686;28;20024;-47
2024/02/11 06:41:41;;;;;;;20.77;8.98;;;4.60;99.90;;;;;;5107078;28;20066;-49
2024/02/11 06:44:07;;;;;;;19.27;8.45;;;4.60;99.90;;;;;;5106435;28;20281;-49
2024/02/11 06:46:32;;;;;;;21.85;9.07;;;4.50;99.90;;;;;;5106630;28;20024;-48
2024/02/11 06:49:00;;;;;;;20.17;9.10;;;4.60;99.90;;;;;;5105887;28;20036;-49
2024/02/11 06:51:29;;;;;;;20.50;8.75;;;4.60;99.90;;;;;;5106560;28;20031;-50
2024/02/11 06:53:55;;;;;;;18.23;8.30;;;4.50;99.90;;;;;;5106722;28;20028;-49
2024/02/11 06:56:21;;;;;;;24.90;9.07;;;4.30;99.90;;;;;;5106639;28;20326;-48
2024/02/11 06:58:47;;;;;;;15.65;8.00;;;4.30;99.90;;;;;;5105392;28;20024;-47
2024/02/11 07:01:13;;;;;;;20.35;7.93;;;4.30;99.90;;;;;;5106546;28;20020;-48
2024/02/11 07:03:39;;;;;;;18.83;8.38;;;4.40;99.90;;;;;;5106700;28;20178;-46
2024/02/11 07:06:09;;;;;;;18.73;8.57;;;4.40;99.90;;;;;;5106580;28;20034;-46
2024/02/11 07:08:36;;;;;;;16.48;8.00;;;4.50;99.90;;;;;;5106523;28;20099;-46
2024/02/11 07:11:08;;;;;;;15.90;7.65;;;4.50;99.90;;;;;;5105925;28;20271;-49
2024/02/11 07:13:34;;;;;;;18.35;8.95;;;4.50;99.90;;;;;;5106203;28;20266;-47
2024/02/11 07:16:00;;;;;;;16.50;7.95;;;4.40;99.90;;;;;;5106287;28;20032;-48
2024/02/11 07:18:25;;;;;;;14.65;7.20;;;4.40;99.90;;;;;;5106088;28;20055;-49
2024/02/11 07:20:51;;;;;;;12.73;7.25;;;4.40;99.90;;;;;;5105978;28;20083;-48
2024/02/11 07:23:17;;;;;;;21.75;8.35;;;4.40;99.90;;;;;;5106581;28;20019;-48
2024/02/11 07:25:43;;;;;;;14.38;7.40;;;4.40;99.90;;;;;;5106043;28;20032;-49
2024/02/11 07:28:08;;;;;;;12.27;7.10;;;4.30;99.90;;;;;;5106133;28;20034;-46
2024/02/11 07:30:34;;;;;;;18.27;6.85;;;4.20;99.90;;;;;;5105686;28;20202;-49
2024/02/11 07:33:00;;;;;;;18.60;8.10;;;4.30;99.90;;;;;;5106051;28;20039;-49
2024/02/11 07:35:25;;;;;;;14.07;7.18;;;4.30;99.90;;;;;;5105325;28;20095;-49
2024/02/11 07:37:51;;;;;;;19.52;9.13;;;4.30;99.90;;;;;;5106401;28;20085;-47
2024/02/11 07:40:17;;;;;;;13.40;7.55;;;4.30;99.90;;;;;;5106007;28;20024;-47
2024/02/11 07:42:43;;;;;;;14.02;8.27;;;4.30;99.90;;;;;;5105474;28;20039;-50
2024/02/11 07:45:14;;;;;;;18.88;7.72;;;4.30;99.90;;;;;;5104759;28;20027;-49
2024/02/11 07:47:49;;;;;;;16.73;8.52;;;4.20;99.90;;;;;;5104944;28;20104;-49
2024/02/11 07:50:14;;;;;;;21.02;8.68;;;4.30;99.90;;;;;;5105961;28;20032;-49
2024/02/11 07:52:42;;;;;;;14.75;7.70;;;4.30;99.90;;;;;;5105898;28;20088;-47
2024/02/11 07:55:11;;;;;;;16.95;8.20;;;4.20;99.90;;;;;;5105750;28;20016;-46
2024/02/11 07:57:37;;;;;;;16.42;8.65;;;4.30;99.90;;;;;;5105519;28;20028;-47
2024/02/11 08:00:03;;;;;;;20.63;8.73;;;4.40;99.90;;;;;;5108800;28;20028;-49
2024/02/11 08:02:31;;;;;;;17.42;9.18;;;4.50;99.90;;;;;;5109507;28;20031;-47
2024/02/11 08:04:56;;;;;;;16.92;9.60;;;4.50;99.90;;;;;;5108992;28;20028;-49
2024/02/11 08:07:22;;;;;;;22.08;10.02;;;4.60;99.90;;;;;;5109913;28;20239;-49
2024/02/11 08:09:48;;;;;;;18.50;9.13;;;4.70;99.90;;;;;;5110103;28;20293;-49
2024/02/11 08:12:13;;;;;;;18.85;8.93;;;4.70;99.90;;;;;;5109761;28;20047;-49
2024/02/11 08:14:40;;;;;;;18.83;9.02;;;4.70;99.90;;;;;;5109821;28;20070;-47
2024/02/11 08:17:06;;;;;;;20.50;8.95;;;4.70;99.90;;;;;;5109319;28;20187;-49
2024/02/11 08:19:32;;;;;;;20.88;9.75;;;4.60;99.90;;;;;;5109478;28;20043;-49
2024/02/11 08:22:00;;;;;;;22.35;10.38;;;4.60;99.90;;;;;;5109598;28;20028;-48
2024/02/11 08:24:26;;;;;;;23.67;11.15;;;4.60;99.90;;;;;;5109654;28;20024;-49
2024/02/11 08:26:51;;;;;;;25.77;10.55;;;4.60;99.90;;;;;;5109402;28;20067;-49
2024/02/11 08:29:19;;;;;;;27.60;11.02;;;4.70;99.90;;;;;;5109275;28;20032;-48
2024/02/11 08:31:46;;;;;;;27.83;12.40;;;4.70;99.90;;;;;;5109495;28;20043;-49
2024/02/11 08:34:11;;;;;;;31.65;11.05;;;4.80;99.90;;;;;;5109105;28;20103;-49
2024/02/11 08:36:38;;;;;;;26.23;10.73;;;4.70;99.90;;;;;;5109431;28;20048;-49
2024/02/11 08:39:03;;;;;;;27.67;10.85;;;4.70;99.90;;;;;;5109372;28;20083;-49
2024/02/11 08:41:29;;;;;;;28.75;11.57;;;4.70;99.90;;;;;;5109125;28;20028;-46
2024/02/11 08:43:55;;;;;;;31.83;11.52;;;4.80;99.90;;;;;;5109131;28;20056;-47
2024/02/11 08:46:21;;;;;;;25.25;11.27;;;4.80;99.90;;;;;;5108716;28;20020;-49
2024/02/11 08:48:47;;;;;;;33.35;12.48;;;5.00;99.90;;;;;;5107807;28;20232;-49
2024/02/11 08:51:17;;;;;;;27.70;12.65;;;5.20;99.90;;;;;;5109044;28;20032;-48
2024/02/11 08:53:42;;;;;;;;;;;5.50;99.90;;;;;;5109182;28;20077;-47
2024/02/11 08:56:09;;;;;;;27.70;13.43;;;6.40;99.90;;;;;;5108996;28;19908;-48
2024/02/11 08:58:35;;;;;;;26.67;11.93;;;7.10;99.90;;;;;;5107896;28;20316;-47
2024/02/11 09:01:00;;;;;;;20.50;10.57;;;7.20;99.90;;;;;;5108769;28;20027;-49
2024/02/11 09:03:26;;;;;;;26.15;11.48;;;7.10;99.90;;;;;;5108386;28;20289;-49
2024/02/11 09:05:52;;;;;;;18.95;10.55;;;7.00;99.90;;;;;;5108436;28;20099;-49
2024/02/11 09:08:20;;;;;;;23.15;11.07;;;7.00;99.90;;;;;;5108814;28;20190;-49
2024/02/11 09:10:46;;;;;;;22.85;12.25;;;6.90;99.90;;;;;;5108555;28;20105;-50
2024/02/11 09:13:11;;;;;;;28.75;12.95;;;6.90;99.90;;;;;;5108656;28;20294;-49
2024/02/11 09:15:37;;;;;;;24.23;11.00;;;6.90;99.90;;;;;;5108596;28;20206;-50
2024/02/11 09:18:05;;;;;;;30.73;13.13;;;6.90;99.90;;;;;;5108383;28;20044;-49
2024/02/11 09:20:35;;;;;;;27.15;12.57;;;7.00;99.90;;;;;;5108589;28;20032;-49
2024/02/11 09:23:02;;;;;;;25.30;13.48;;;7.00;99.90;;;;;;5107840;28;20331;-49
2024/02/11 09:25:28;;;;;;;27.00;12.80;;;7.00;99.90;;;;;;5108437;28;20059;-48
2024/02/11 09:27:55;;;;;;;26.00;11.88;;;7.00;99.90;;;;;;5108317;28;20030;-50
2024/02/11 09:30:21;;;;;;;25.13;12.07;;;7.10;99.90;;;;;;5108395;28;20031;-47
2024/02/11 09:32:48;;;;;;;24.13;12.50;;;7.10;99.90;;;;;;5107846;28;20269;-55
2024/02/11 09:35:17;;;;;;;23.55;11.15;;;7.20;99.90;;;;;;5107712;28;20042;-49
2024/02/11 09:37:44;;;;;;;22.02;11.77;;;7.30;99.90;;;;;;5108023;28;20054;-46
2024/02/11 09:40:11;;;;;;;23.20;10.52;;;7.40;99.90;;;;;;5108049;28;20049;-49
2024/02/11 09:42:37;;;;;;;20.25;9.13;;;7.60;99.90;;;;;;5107158;28;20029;-49
2024/02/11 09:45:04;;;;;;;18.98;10.23;;;7.70;99.90;;;;;;5107676;28;20055;-48
2024/02/11 09:47:32;;;;;;;18.10;9.10;;;7.80;99.90;;;;;;5107896;28;20224;-47
2024/02/11 09:50:00;;;;;;;14.52;8.15;;;7.90;99.90;;;;;;5106984;28;20038;-49
2024/02/11 09:52:26;;;;;;;16.25;7.70;;;8.00;99.90;;;;;;5090196;28;20024;-52
2024/02/11 09:54:52;;;;;;;13.27;7.32;;;8.00;99.90;;;;;;5107573;28;20034;-49
2024/02/11 09:57:17;;;;;;;11.13;5.97;;;8.10;99.90;;;;;;5107610;28;20032;-50
2024/02/11 09:59:43;;;;;;;11.20;6.20;;;8.10;99.90;;;;;;5107508;28;20024;-50
2024/02/11 10:02:18;;;;;;;14.18;6.43;;;8.00;99.90;;;;;;5107754;28;20042;-50
2024/02/11 10:04:44;;;;;;;12.30;6.38;;;8.10;99.90;;;;;;5106803;28;20085;-49
2024/02/11 10:07:26;;;;;;;13.45;6.30;;;8.00;99.90;;;;;;5107412;28;20024;-50
2024/02/11 10:09:56;;;;;;;10.30;5.13;;;8.10;99.90;;;;;;5107491;28;20032;-49
2024/02/11 10:12:22;;;;;;;11.65;5.78;;;8.10;99.90;;;;;;5106538;28;20024;-50
2024/02/11 10:14:55;;;;;;;10.60;5.47;;;8.10;99.90;;;;;;5105923;28;20119;-50
2024/02/11 10:17:21;;;;;;;11.13;4.90;;;8.20;99.90;;;;;;5106120;28;20044;-49
2024/02/11 10:19:51;;;;;;;8.95;4.93;;;8.20;99.90;;;;;;5107389;28;20066;-49
2024/02/11 10:22:18;;;;;;;10.73;5.75;;;8.20;99.90;;;;;;5105785;28;20028;-50
2024/02/11 10:24:45;;;;;;;13.20;6.15;;;8.30;99.90;;;;;;5106135;28;20091;-51
2024/02/11 10:27:14;;;;;;;11.55;5.30;;;8.50;99.90;;;;;;5107110;28;20278;-50
2024/02/11 10:29:41;;;;;;;11.07;5.65;;;8.70;99.90;;;;;;5107007;28;20072;-51
2024/02/11 10:32:12;;;;;;;9.75;4.97;;;8.90;99.90;;;;;;5107047;28;20028;-50
2024/02/11 10:34:39;;;;;;;37.03;31.40;;;9.40;99.90;;;;;;5107109;28;20036;-50
2024/02/11 10:37:05;;;;;;;8.13;4.90;;;10.50;99.90;;;;;;5106845;28;20016;-50
2024/02/11 10:39:31;;;;;;;9.07;4.18;;;11.00;99.90;;;;;;5106359;28;20039;-51
2024/02/11 10:41:57;;;;;;;8.52;3.60;;;10.60;99.90;;;;;;5105813;28;20193;-50
2024/02/11 10:44:23;;;;;;;10.57;4.85;;;10.30;99.90;;;;;;5106772;28;20027;-51
2024/02/11 10:46:49;;;;;;;11.10;3.92;;;10.30;99.90;;;;;;5106101;28;20055;-49
2024/02/11 10:49:14;;;;;;;9.10;4.05;;;11.40;99.90;;;;;;5106664;28;20091;-50
2024/02/11 10:51:42;;;;;;;8.38;3.72;;;13.10;99.90;;;;;;5105528;28;20038;-49
2024/02/11 10:54:08;;;;;;;7.95;3.40;;;13.80;99.90;;;;;;5105512;28;20090;-50
2024/02/11 10:56:35;;;;;;;9.23;4.93;;;13.80;99.90;;;;;;5105605;28;20039;-51
2024/02/11 10:59:06;;;;;;;6.70;3.47;;;12.90;99.90;;;;;;5105360;28;20099;-50
2024/02/11 11:01:32;;;;;;;6.22;3.25;;;12.00;99.90;;;;;;5106358;28;20278;-50
2024/02/11 11:03:59;;;;;;;7.13;3.78;;;11.50;99.90;;;;;;5106354;28;20027;-50
2024/02/11 11:06:24;;;;;;;7.18;2.60;;;11.30;99.90;;;;;;5106470;28;20316;-50
2024/02/11 11:08:50;;;;;;;6.53;2.45;;;11.00;99.90;;;;;;5105486;28;20032;-51
2024/02/11 11:11:25;;;;;;;4.70;2.22;;;10.70;99.90;;;;;;5105942;28;20085;-51
2024/02/11 11:13:58;;;;;;;6.22;2.60;;;10.50;99.90;;;;;;5106367;28;20028;-51
2024/02/11 11:16:38;;;;;;;10.07;3.53;;;10.30;99.90;;;;;;5105083;28;20036;-52
2024/02/11 11:19:14;;;;;;;6.65;3.15;;;10.10;99.90;;;;;;5106101;28;20028;-51
2024/02/11 11:21:54;;;;;;;5.95;3.00;;;10.10;99.90;;;;;;5105984;28;20036;-50
2024/02/11 11:24:20;;;;;;;11.75;4.75;;;10.20;99.90;;;;;;5105198;28;20028;-51
2024/02/11 11:26:53;;;;;;;22.85;11.88;;;10.40;99.90;;;;;;5105921;28;20028;-49
2024/02/11 11:29:19;;;;;;;6.07;3.00;;;10.50;99.90;;;;;;5105576;28;20058;-49
2024/02/11 11:31:48;;;;;;;7.63;2.90;;;10.50;99.90;;;;;;5105997;28;20281;-48
2024/02/11 11:34:14;;;;;;;7.57;2.60;;;11.30;99.90;;;;;;5105262;28;20039;-51
2024/02/11 11:36:40;;;;;;;8.52;2.38;;;11.90;99.90;;;;;;5106040;28;20032;-50
2024/02/11 11:39:13;;;;;;;7.00;2.50;;;11.90;99.90;;;;;;5104935;28;20058;-51
2024/02/11 11:41:39;;;;;;;11.27;1.85;;;11.90;99.90;;;;;;5105912;28;20028;-49
2024/02/11 11:44:05;;;;;;;6.82;1.88;;;12.00;99.90;;;;;;5104615;28;20274;-52
2024/02/11 11:46:31;;;;;;;5.93;1.55;;;14.00;99.90;;;;;;5105761;28;20051;-51
2024/02/11 11:48:57;;;;;;;5.63;1.40;;;13.90;99.90;;;;;;5104500;28;20032;-51
2024/02/11 11:51:23;;;;;;;4.70;1.40;;;12.70;99.90;;;;;;5105560;28;20262;-52
2024/02/11 11:53:51;;;;;;;6.63;1.70;;;12.10;99.90;;;;;;5105828;28;20206;-52
2024/02/11 11:56:17;;;;;;;3.00;1.27;;;11.90;99.90;;;;;;5105678;28;20078;-52
2024/02/11 11:58:43;;;;;;;7.00;1.63;;;11.60;99.90;;;;;;5104189;28;20051;-51
2024/02/11 12:01:08;;;;;;;4.85;1.25;;;11.10;99.90;;;;;;5105174;28;20031;-52
2024/02/11 12:03:36;;;;;;;4.55;1.98;;;10.70;99.90;;;;;;5104706;28;20036;-51
2024/02/11 12:06:02;;;;;;;6.88;1.73;;;10.50;99.90;;;;;;5104322;28;20282;-52
2024/02/11 12:08:28;;;;;;;5.43;1.77;;;10.50;99.90;;;;;;5105430;28;20032;-52
2024/02/11 12:11:03;;;;;;;5.68;1.40;;;10.50;99.90;;;;;;5104710;28;20028;-52
2024/02/11 12:13:32;;;;;;;4.93;1.55;;;10.40;99.90;;;;;;5105494;28;20040;-51
2024/02/11 12:15:59;;;;;;;8.40;1.90;;;10.30;99.90;;;;;;5104112;28;20056;-51
2024/02/11 12:18:26;;;;;;;6.43;1.50;;;10.20;99.90;;;;;;5104222;28;20044;-52
2024/02/11 12:20:54;;;;;;;3.42;1.38;;;10.00;99.90;;;;;;5104176;28;20042;-51
2024/02/11 12:23:20;;;;;;;6.75;1.70;;;9.90;99.90;;;;;;5105286;28;20028;-52
2024/02/11 12:25:51;;;;;;;4.43;1.55;;;10.30;99.90;;;;;;5105271;28;20069;-52
2024/02/11 12:28:27;;;;;;;7.82;2.83;;;10.30;99.90;;;;;;5103976;28;20189;-51
2024/02/11 12:31:09;;;;;;;4.93;1.52;;;10.80;99.90;;;;;;5105250;28;20032;-52
2024/02/11 12:33:37;;;;;;;18.02;11.43;;;11.30;99.90;;;;;;5104693;28;20052;-51
2024/02/11 12:36:07;;;;;;;3.70;1.38;;;12.20;99.90;;;;;;5105296;28;20121;-52
2024/02/11 12:38:33;;;;;;;;;;;12.60;99.90;;;;;;5105758;28;20274;-49
2024/02/11 12:41:00;;;;;;;9.20;1.85;;;13.10;99.90;;;;;;5105123;28;19908;-50
2024/02/11 12:43:25;;;;;;;6.00;1.67;;;14.00;99.90;;;;;;5104514;28;20235;-49
2024/02/11 12:45:51;;;;;;;2.00;1.02;;;14.00;99.90;;;;;;5107630;28;20016;-50